Time;durP1;ratioP1;P1;durP2;ratioP2;P2;SDS_P1;SDS_P2;PMS_P1;PMS_P2;Temp;Humidity;BMP_temperature;BMP_pressure;BME280_temperature;BME280_humidity;BME280_pressure;Samples;Min_cycle;Max_cycle;Signal;HPM_P1;HPM_P2
2023/10/25 00:02:08;;;;;;;22.50;15.60;;;;;;;11.61;92.48;99190.80;109049;278;39921;-71
2023/10/25 00:04:50;;;;;;;20.30;16.60;;;;;;;11.59;92.53;99184.13;109087;278;39676;-67
2023/10/25 00:07:29;;;;;;;17.50;14.60;;;;;;;11.58;92.54;99176.85;109108;277;38143;-68
2023/10/25 00:10:10;;;;;;;17.50;14.80;;;;;;;11.57;92.75;99169.89;109106;278;38481;-66
2023/10/25 00:12:51;;;;;;;17.60;15.20;;;;;;;11.56;92.87;99159.28;109079;278;38560;-67
2023/10/25 00:15:34;;;;;;;21.40;15.80;;;;;;;11.57;93.04;99151.95;109029;278;38166;-66
2023/10/25 00:18:17;;;;;;;21.40;16.10;;;;;;;11.55;93.04;99145.04;109104;278;38492;-72
2023/10/25 00:20:57;;;;;;;19.60;15.00;;;;;;;11.55;93.06;99139.80;109112;278;38452;-69
2023/10/25 00:23:31;;;;;;;18.30;15.10;;;;;;;11.55;93.17;99139.79;109121;278;38638;-70
2023/10/25 00:26:06;;;;;;;17.80;14.20;;;;;;;11.56;93.17;99138.16;109050;278;38237;-69
2023/10/25 00:28:43;;;;;;;17.20;14.80;;;;;;;11.57;93.25;99133.73;109115;278;38283;-69
2023/10/25 00:31:24;;;;;;;19.30;16.20;;;;;;;11.56;93.34;99124.55;109048;277;38634;-71
2023/10/25 00:33:59;;;;;;;17.00;14.10;;;;;;;11.57;93.56;99119.82;109084;278;38457;-66
2023/10/25 00:36:37;;;;;;;18.90;14.80;;;;;;;11.58;93.65;99116.08;108867;278;41463;-65
2023/10/25 00:39:18;;;;;;;20.30;14.70;;;;;;;11.56;93.59;99115.33;109048;278;38789;-67
2023/10/25 00:42:03;;;;;;;16.60;14.50;;;;;;;11.57;93.74;99110.53;109040;278;38258;-66
2023/10/25 00:44:41;;;;;;;18.90;14.70;;;;;;;11.59;93.75;99102.73;109086;278;38144;-70
2023/10/25 00:47:15;;;;;;;18.00;15.00;;;;;;;11.59;93.77;99096.77;108910;278;174962;-70
2023/10/25 00:49:49;;;;;;;22.40;15.70;;;;;;;11.61;93.95;99091.61;108985;278;38326;-70
2023/10/25 00:52:28;;;;;;;16.30;14.40;;;;;;;11.59;93.83;99089.59;108349;278;900042;-71
2023/10/25 00:55:01;;;;;;;;;;;;;;;11.59;93.84;99082.42;108409;278;895945;-71
2023/10/25 00:57:40;;;;;;;17.40;14.00;;;;;;;11.56;93.98;99077.91;109116;278;38726;-67
2023/10/25 01:00:19;;;;;;;17.40;14.20;;;;;;;11.55;94.02;99073.78;109039;278;38243;-66
2023/10/25 01:02:56;;;;;;;18.80;14.70;;;;;;;11.53;94.12;99074.27;109049;278;38917;-67
2023/10/25 01:05:35;;;;;;;19.40;14.60;;;;;;;11.53;94.27;99071.70;108988;278;39055;-66
2023/10/25 01:08:17;;;;;;;17.50;14.50;;;;;;;11.51;94.11;99071.08;109058;277;38817;-66
2023/10/25 01:10:55;;;;;;;17.20;13.60;;;;;;;11.48;94.02;99070.60;109053;277;39237;-66
2023/10/25 01:13:32;;;;;;;19.60;14.60;;;;;;;11.44;94.28;99061.95;109067;278;38070;-66
2023/10/25 01:16:07;;;;;;;;;;;;;;;11.43;94.41;99059.19;109055;277;38271;-67
2023/10/25 01:18:42;;;;;;;18.00;14.30;;;;;;;11.40;94.90;99054.65;109082;278;39574;-70
2023/10/25 01:21:17;;;;;;;18.40;14.40;;;;;;;11.39;94.81;99045.83;109042;277;38510;-70
2023/10/25 01:23:59;;;;;;;20.30;13.60;;;;;;;11.35;94.88;99041.84;109041;277;38350;-70
2023/10/25 01:26:49;;;;;;;20.20;13.70;;;;;;;11.36;95.05;99037.96;109032;277;39508;-69
2023/10/25 01:29:27;;;;;;;16.80;13.70;;;;;;;11.37;95.14;99030.56;108891;274;177785;-69
2023/10/25 01:32:01;;;;;;;16.80;13.10;;;;;;;11.39;95.13;99020.72;109010;277;38601;-70
2023/10/25 01:34:38;;;;;;;16.00;14.30;;;;;;;11.37;95.13;99016.08;109089;277;38704;-67
2023/10/25 01:37:18;;;;;;;16.60;13.50;;;;;;;11.35;95.55;99009.20;108975;277;38358;-67
2023/10/25 01:39:52;;;;;;;15.70;13.20;;;;;;;11.32;95.46;99005.04;108975;277;38230;-70
2023/10/25 01:42:29;;;;;;;18.30;14.10;;;;;;;11.31;95.84;99000.38;109028;277;39615;-67
2023/10/25 01:45:09;;;;;;;16.50;13.80;;;;;;;11.29;95.92;98992.83;108861;277;38598;-66
2023/10/25 01:47:46;;;;;;;17.70;12.90;;;;;;;11.29;96.15;98990.73;108966;277;38089;-67
2023/10/25 01:50:21;;;;;;;14.60;12.50;;;;;;;11.29;96.13;98983.59;108927;277;39506;-66
2023/10/25 01:53:05;;;;;;;18.00;13.10;;;;;;;11.32;96.26;98977.98;109013;277;39325;-69
2023/10/25 01:55:45;;;;;;;15.00;13.00;;;;;;;11.35;96.25;98973.77;108293;277;898688;-69
2023/10/25 01:58:24;;;;;;;18.30;13.60;;;;;;;11.32;96.31;98968.05;109015;277;38466;-66
2023/10/25 02:01:07;;;;;;;;;;;;;;;11.31;96.67;98966.88;108987;277;38490;-66
2023/10/25 02:03:43;;;;;;;15.60;12.70;;;;;;;11.29;96.88;98957.40;108957;277;38763;-69
2023/10/25 02:06:18;;;;;;;14.30;12.70;;;;;;;11.34;96.98;98954.61;108942;277;38570;-70
2023/10/25 02:08:52;;;;;;;15.10;13.00;;;;;;;11.36;96.90;98954.83;109013;277;38240;-69
2023/10/25 02:11:29;;;;;;;17.50;14.00;;;;;;;11.37;96.97;98952.86;108946;277;38808;-69
2023/10/25 02:14:03;;;;;;;;;;;;;;;11.35;96.89;98944.08;108973;277;38352;-69
2023/10/25 02:16:37;;;;;;;15.90;12.70;;;;;;;11.33;97.28;98938.99;108984;277;38836;-70
2023/10/25 02:19:13;;;;;;;14.60;12.00;;;;;;;11.33;97.20;98937.42;109000;277;38282;-66
2023/10/25 02:21:49;;;;;;;15.40;11.80;;;;;;;11.32;97.17;98934.52;108947;277;39249;-66
2023/10/25 02:24:27;;;;;;;13.30;11.90;;;;;;;11.32;97.49;98930.33;108329;277;900297;-69
2023/10/25 02:27:01;;;;;;;14.30;12.50;;;;;;;11.30;97.36;98925.41;108975;277;38152;-71
2023/10/25 02:29:35;;;;;;;14.30;11.80;;;;;;;11.32;97.56;98923.30;108976;277;40480;-69
2023/10/25 02:32:10;;;;;;;15.50;12.50;;;;;;;11.34;97.63;98921.08;108923;277;39344;-69
2023/10/25 02:34:47;;;;;;;14.60;12.80;;;;;;;11.33;97.53;98920.30;108945;277;39155;-66
2023/10/25 02:37:30;;;;;;;15.00;12.40;;;;;;;11.34;97.79;98923.77;108954;277;39642;-69
2023/10/25 02:40:06;;;;;;;15.00;12.50;;;;;;;11.35;97.80;98926.25;108960;277;38944;-69
2023/10/25 02:42:44;;;;;;;14.20;11.90;;;;;;;11.35;97.83;98922.98;109002;277;39631;-66
2023/10/25 02:45:25;;;;;;;12.70;11.10;;;;;;;11.38;97.64;98918.27;108288;277;900887;-66
2023/10/25 02:48:01;;;;;;;15.90;11.50;;;;;;;11.40;97.75;98913.09;109006;277;39869;-67
2023/10/25 02:50:40;;;;;;;12.20;10.90;;;;;;;11.40;97.67;98915.32;108345;277;975452;-68
2023/10/25 02:53:16;;;;;;;14.60;12.80;;;;;;;11.43;97.79;98906.58;108899;277;40650;-66
2023/10/25 02:56:01;;;;;;;15.90;12.20;;;;;;;11.44;97.79;98902.02;108976;277;38770;-67
2023/10/25 02:58:37;;;;;;;14.50;12.10;;;;;;;11.42;97.66;98897.36;108965;277;39208;-67
2023/10/25 03:01:25;;;;;;;;;;;;;;;11.46;97.89;98893.14;108978;277;38223;-67
2023/10/25 03:04:03;;;;;;;13.80;11.70;;;;;;;11.45;98.02;98894.23;108978;277;38376;-70
2023/10/25 03:06:37;;;;;;;14.40;10.90;;;;;;;11.49;98.04;98889.23;108979;277;38195;-71
2023/10/25 03:09:23;;;;;;;13.80;12.30;;;;;;;11.52;97.90;98881.19;109000;277;38224;-67
2023/10/25 03:12:01;;;;;;;16.10;12.70;;;;;;;11.53;97.70;98878.32;108955;277;38541;-66
2023/10/25 03:14:42;;;;;;;14.10;12.40;;;;;;;11.50;97.55;98875.58;108932;277;38437;-70
2023/10/25 03:17:19;;;;;;;13.80;11.60;;;;;;;11.48;97.77;98872.90;108946;277;39443;-67
2023/10/25 03:20:02;;;;;;;16.00;11.50;;;;;;;11.46;97.66;98867.27;108925;277;38973;-66
2023/10/25 03:22:47;;;;;;;14.20;11.40;;;;;;;11.46;97.78;98863.75;108978;277;38551;-67
2023/10/25 03:25:25;;;;;;;14.80;12.20;;;;;;;11.50;97.89;98862.48;108933;277;38365;-66
2023/10/25 03:28:02;;;;;;;14.90;12.80;;;;;;;11.52;97.95;98864.39;109023;277;38336;-70
2023/10/25 03:30:38;;;;;;;14.80;12.40;;;;;;;11.52;97.70;98860.60;108952;277;38360;-69
2023/10/25 03:33:13;;;;;;;14.90;11.70;;;;;;;11.50;97.72;98857.57;109007;277;38769;-70
2023/10/25 03:35:56;;;;;;;14.10;11.10;;;;;;;11.49;97.69;98857.48;108951;276;39435;-71
2023/10/25 03:38:33;;;;;;;13.50;10.60;;;;;;;11.51;97.87;98856.81;108386;277;899639;-70
2023/10/25 03:41:09;;;;;;;13.90;11.50;;;;;;;11.51;98.03;98851.38;108998;277;38351;-70
2023/10/25 03:43:50;;;;;;;15.40;12.70;;;;;;;11.49;97.86;98850.52;109025;277;38789;-66
2023/10/25 03:46:27;;;;;;;15.60;12.70;;;;;;;11.45;97.88;98849.70;108966;277;40789;-66
2023/10/25 03:49:11;;;;;;;14.90;11.60;;;;;;;11.42;98.01;98849.90;108962;277;39183;-66
2023/10/25 03:51:54;;;;;;;13.00;11.20;;;;;;;11.42;98.09;98846.20;108970;277;38204;-67
2023/10/25 03:54:31;;;;;;;13.40;11.50;;;;;;;11.47;98.41;98839.80;108878;277;175856;-67
2023/10/25 03:57:13;;;;;;;12.50;11.20;;;;;;;11.50;98.28;98835.56;108941;277;39223;-71
2023/10/25 03:59:53;;;;;;;14.70;12.50;;;;;;;11.53;98.45;98834.85;108963;277;38487;-66
2023/10/25 04:02:39;;;;;;;15.90;12.50;;;;;;;11.57;98.52;98834.21;108964;277;39565;-67
2023/10/25 04:05:20;;;;;;;16.20;12.20;;;;;;;11.59;98.26;98824.69;108963;277;38515;-67
2023/10/25 04:08:00;;;;;;;13.70;11.40;;;;;;;11.60;98.36;98813.58;108971;277;38496;-67
2023/10/25 04:10:40;;;;;;;14.00;12.00;;;;;;;11.63;98.15;98806.91;108951;277;38761;-66
2023/10/25 04:13:19;;;;;;;14.90;11.40;;;;;;;11.64;98.23;98802.48;108986;277;39415;-67
2023/10/25 04:16:09;;;;;;;12.70;11.40;;;;;;;11.66;97.96;98795.03;108959;277;38383;-67
2023/10/25 04:18:48;;;;;;;13.30;11.90;;;;;;;11.66;98.03;98790.85;108995;277;38313;-66
2023/10/25 04:21:27;;;;;;;14.50;12.90;;;;;;;11.66;97.92;98790.29;108981;277;38472;-66
2023/10/25 04:24:04;;;;;;;14.30;12.60;;;;;;;11.63;97.80;98786.48;108998;277;38215;-65
2023/10/25 04:26:44;;;;;;;14.70;12.20;;;;;;;11.61;97.81;98782.27;108977;277;38787;-66
2023/10/25 04:29:26;;;;;;;15.60;11.50;;;;;;;11.64;98.20;98779.09;108981;277;38139;-69
2023/10/25 04:32:00;;;;;;;12.80;11.10;;;;;;;11.63;97.85;98772.83;108999;277;38356;-69
2023/10/25 04:34:36;;;;;;;13.90;11.50;;;;;;;11.65;98.01;98770.12;109032;277;38905;-65
2023/10/25 04:37:16;;;;;;;15.10;11.90;;;;;;;11.67;97.84;98765.48;108930;277;39733;-68
2023/10/25 04:39:54;;;;;;;13.60;12.10;;;;;;;11.69;98.26;98764.80;108985;277;38584;-66
2023/10/25 04:42:31;;;;;;;15.70;12.30;;;;;;;11.70;98.05;98762.44;108974;277;38399;-69
2023/10/25 04:45:07;;;;;;;15.30;11.80;;;;;;;11.68;97.86;98758.23;108951;277;38149;-71
2023/10/25 04:47:45;;;;;;;12.90;11.00;;;;;;;11.67;97.93;98752.84;108964;277;38266;-66
2023/10/25 04:50:32;;;;;;;12.70;11.40;;;;;;;11.67;97.92;98747.65;108934;277;38290;-66
2023/10/25 04:53:09;;;;;;;11.90;10.70;;;;;;;11.68;97.97;98744.61;108971;277;38631;-68
2023/10/25 04:55:49;;;;;;;12.00;10.80;;;;;;;11.67;97.99;98737.98;108964;277;39994;-70
2023/10/25 04:58:25;;;;;;;13.10;10.90;;;;;;;11.65;98.18;98735.36;108941;277;38273;-69
2023/10/25 05:01:00;;;;;;;13.10;11.70;;;;;;;11.60;98.02;98735.14;108943;277;38186;-70
2023/10/25 05:03:36;;;;;;;11.50;10.40;;;;;;;11.61;98.17;98738.77;108989;277;39388;-67
2023/10/25 05:06:12;;;;;;;12.40;11.20;;;;;;;11.60;98.17;98740.73;108965;277;38492;-66
2023/10/25 05:08:56;;;;;;;11.60;10.30;;;;;;;11.60;98.28;98739.33;108968;277;39876;-69
2023/10/25 05:11:36;;;;;;;11.60;10.00;;;;;;;11.60;98.41;98732.31;108953;277;38352;-70
2023/10/25 05:14:14;;;;;;;11.30;10.20;;;;;;;11.64;98.44;98738.59;108945;277;38206;-66
2023/10/25 05:16:51;;;;;;;13.00;10.70;;;;;;;11.57;98.41;98734.86;108977;277;38560;-66
2023/10/25 05:19:27;;;;;;;12.30;11.00;;;;;;;11.53;98.28;98732.70;108984;277;39432;-66
2023/10/25 05:22:09;;;;;;;11.10;10.00;;;;;;;11.54;98.73;98731.20;108977;277;39636;-66
2023/10/25 05:24:51;;;;;;;11.20;10.10;;;;;;;11.57;98.84;98728.90;108975;277;38494;-67
2023/10/25 05:27:29;;;;;;;11.30;9.60;;;;;;;11.56;98.85;98726.01;109000;277;39962;-67
2023/10/25 05:30:09;;;;;;;11.60;10.50;;;;;;;11.58;98.90;98728.88;108924;277;38320;-65
2023/10/25 05:32:50;;;;;;;11.50;10.30;;;;;;;11.61;99.08;98723.58;108857;277;188609;-69
2023/10/25 05:35:27;;;;;;;12.60;11.20;;;;;;;11.64;99.13;98719.21;108956;277;38548;-70
2023/10/25 05:38:05;;;;;;;11.70;10.50;;;;;;;11.63;99.04;98719.04;108927;277;38684;-69
2023/10/25 05:40:43;;;;;;;11.50;10.40;;;;;;;11.64;99.04;98717.27;108951;277;38539;-69
2023/10/25 05:43:18;;;;;;;11.50;9.90;;;;;;;11.63;98.86;98721.54;108979;277;39345;-67
2023/10/25 05:45:56;;;;;;;11.60;10.10;;;;;;;11.61;98.83;98716.77;108949;277;38875;-66
2023/10/25 05:48:35;;;;;;;10.70;9.60;;;;;;;11.61;98.96;98719.88;109004;277;38315;-66
2023/10/25 05:51:12;;;;;;;10.70;9.70;;;;;;;11.65;99.22;98719.28;108942;277;39235;-65
2023/10/25 05:53:52;;;;;;;11.10;10.10;;;;;;;11.65;99.02;98718.08;108940;277;39441;-69
2023/10/25 05:56:32;;;;;;;11.20;10.10;;;;;;;11.64;99.23;98719.38;108935;277;38364;-69
2023/10/25 05:59:10;;;;;;;11.70;10.50;;;;;;;11.68;99.35;98720.66;108969;277;39456;-69
2023/10/25 06:01:56;;;;;;;10.30;9.40;;;;;;;11.70;99.07;98718.45;108936;277;38295;-69
2023/10/25 06:04:35;;;;;;;10.20;9.30;;;;;;;11.70;98.99;98717.92;109023;277;38178;-66
2023/10/25 06:07:18;;;;;;;10.30;9.20;;;;;;;11.67;98.93;98715.28;108948;277;38455;-67
2023/10/25 06:09:56;;;;;;;10.90;9.80;;;;;;;11.73;99.19;98714.92;108951;277;39921;-69
2023/10/25 06:12:35;;;;;;;10.80;9.70;;;;;;;11.77;99.23;98716.36;108983;277;39821;-69
2023/10/25 06:15:09;;;;;;;;;;;;;;;11.74;98.70;98712.05;108989;277;38759;-70
2023/10/25 06:17:43;;;;;;;9.60;8.60;;;;;;;11.72;99.08;98708.66;109006;277;39903;-70
2023/10/25 06:20:19;;;;;;;8.80;7.90;;;;;;;11.75;99.07;98708.84;108953;277;39692;-71
2023/10/25 06:23:05;;;;;;;8.60;7.80;;;;;;;11.77;98.86;98707.27;109020;277;40052;-67
2023/10/25 06:25:52;;;;;;;9.50;8.70;;;;;;;11.74;98.64;98704.36;108935;277;38634;-66
2023/10/25 06:28:35;;;;;;;10.30;9.20;;;;;;;11.74;98.96;98702.41;108933;277;38286;-67
2023/10/25 06:31:21;;;;;;;11.10;8.80;;;;;;;11.73;98.61;98695.65;108947;277;38269;-66
2023/10/25 06:34:02;;;;;;;9.00;8.10;;;;;;;11.71;98.74;98697.05;108949;277;40814;-66
2023/10/25 06:36:39;;;;;;;9.50;8.50;;;;;;;11.73;98.60;98696.89;108956;277;38255;-66
2023/10/25 06:39:16;;;;;;;9.30;8.30;;;;;;;11.72;98.73;98700.08;108961;277;39725;-66
2023/10/25 06:41:53;;;;;;;8.00;7.30;;;;;;;11.68;98.70;98699.02;108962;277;39451;-67
2023/10/25 06:44:29;;;;;;;8.00;7.30;;;;;;;11.68;98.83;98698.66;108987;277;38215;-66
2023/10/25 06:47:22;;;;;;;8.10;7.20;;;;;;;11.68;98.90;98699.54;108942;277;38470;-67
2023/10/25 06:50:03;;;;;;;7.30;6.70;;;;;;;11.69;98.82;98699.79;108969;277;38213;-66
2023/10/25 06:52:43;;;;;;;8.50;7.30;;;;;;;11.72;99.13;98700.27;109000;277;39375;-70
2023/10/25 06:55:20;;;;;;;9.10;8.10;;;;;;;11.76;99.15;98701.22;109017;277;38176;-70
2023/10/25 06:58:02;;;;;;;8.40;7.50;;;;;;;11.76;98.94;98694.23;109005;277;41286;-67
2023/10/25 07:00:43;;;;;;;7.80;7.10;;;;;;;11.75;99.01;98694.12;108939;277;38929;-67
2023/10/25 07:03:24;;;;;;;7.60;6.90;;;;;;;11.80;99.21;98693.27;109001;277;38480;-67
2023/10/25 07:06:01;;;;;;;8.00;7.30;;;;;;;11.82;98.94;98693.98;108958;277;39689;-67
2023/10/25 07:08:39;;;;;;;9.60;8.70;;;;;;;11.85;99.04;98690.49;109005;277;38484;-66
2023/10/25 07:11:16;;;;;;;8.40;7.60;;;;;;;11.89;99.13;98691.98;108947;277;38492;-66
2023/10/25 07:13:56;;;;;;;8.30;7.40;;;;;;;11.92;98.94;98690.91;108975;277;38748;-69
2023/10/25 07:16:31;;;;;;;7.60;6.90;;;;;;;11.92;98.63;98691.45;108954;277;39656;-71
2023/10/25 07:19:05;;;;;;;7.70;6.80;;;;;;;11.91;98.52;98692.35;109037;277;38917;-70
2023/10/25 07:21:42;;;;;;;8.50;7.40;;;;;;;11.93;98.71;98694.14;108960;277;39536;-70
2023/10/25 07:24:16;;;;;;;7.90;7.20;;;;;;;11.95;98.55;98697.84;108958;277;39297;-66
2023/10/25 07:26:50;;;;;;;7.00;6.30;;;;;;;11.91;98.11;98694.80;108951;277;38255;-66
2023/10/25 07:29:27;;;;;;;6.70;6.10;;;;;;;11.91;98.24;98693.73;109022;277;39427;-70
2023/10/25 07:32:01;;;;;;;7.30;6.60;;;;;;;11.93;98.35;98691.70;108939;277;40430;-69
2023/10/25 07:34:37;;;;;;;9.10;7.80;;;;;;;11.92;98.45;98689.31;109001;277;39303;-70
2023/10/25 07:37:16;;;;;;;8.10;7.40;;;;;;;11.92;98.63;98687.06;108947;277;38686;-72
2023/10/25 07:39:55;;;;;;;7.70;6.90;;;;;;;11.93;98.54;98691.16;108957;277;38455;-72
2023/10/25 07:42:29;;;;;;;7.50;6.80;;;;;;;11.95;98.45;98694.66;108984;277;39627;-71
2023/10/25 07:45:06;;;;;;;11.60;7.90;;;;;;;11.96;98.36;98691.66;108978;277;38744;-70
2023/10/25 07:47:42;;;;;;;7.30;6.60;;;;;;;11.97;98.51;98692.46;108979;277;41977;-65
2023/10/25 07:50:20;;;;;;;7.90;6.90;;;;;;;11.96;98.40;98695.33;108972;277;39020;-66
2023/10/25 07:52:57;;;;;;;7.20;6.50;;;;;;;11.95;98.28;98693.96;108935;277;38452;-69
2023/10/25 07:55:37;;;;;;;7.10;6.40;;;;;;;11.99;98.50;98692.35;108800;277;175373;-68
2023/10/25 07:58:12;;;;;;;7.80;6.80;;;;;;;11.98;98.21;98691.65;109007;277;38271;-69
2023/10/25 08:00:51;;;;;;;7.00;6.30;;;;;;;11.98;98.26;98691.14;108942;277;39932;-69
2023/10/25 08:03:28;;;;;;;6.60;6.00;;;;;;;11.95;98.05;98690.99;108965;277;39430;-66
2023/10/25 08:06:09;;;;;;;6.40;5.80;;;;;;;11.95;98.31;98691.36;108965;277;38602;-66
2023/10/25 08:08:43;;;;;;;6.10;5.60;;;;;;;11.97;98.33;98685.48;108973;277;38521;-69
2023/10/25 08:11:16;;;;;;;6.30;5.70;;;;;;;12.00;98.37;98686.79;108986;277;38863;-70
2023/10/25 08:13:53;;;;;;;7.90;7.00;;;;;;;12.06;98.68;98683.61;108980;277;38140;-66
2023/10/25 08:16:38;;;;;;;7.70;7.00;;;;;;;12.09;98.76;98686.21;108971;274;38658;-66
2023/10/25 08:19:17;;;;;;;6.10;5.50;;;;;;;12.11;98.49;98682.73;108999;277;39513;-69
2023/10/25 08:21:52;;;;;;;6.00;5.00;;;;;;;12.12;98.35;98685.10;108971;277;38452;-70
2023/10/25 08:24:33;;;;;;;7.30;5.40;;;;;;;12.12;98.13;98682.83;109006;277;38898;-66
2023/10/25 08:27:24;;;;;;;7.10;6.30;;;;;;;12.12;98.12;98685.77;108969;273;39021;-67
2023/10/25 08:30:03;;;;;;;6.60;6.00;;;;;;;12.12;98.29;98686.46;108971;277;38529;-69
2023/10/25 08:32:42;;;;;;;6.40;5.70;;;;;;;12.17;98.52;98683.36;109028;277;40666;-66
2023/10/25 08:35:21;;;;;;;6.80;6.20;;;;;;;12.21;98.47;98681.15;108992;277;38316;-66
2023/10/25 08:38:00;;;;;;;6.50;5.90;;;;;;;12.26;98.51;98680.56;109014;277;38758;-66
2023/10/25 08:40:39;;;;;;;6.90;5.80;;;;;;;12.31;98.34;98680.59;108936;277;38469;-66
2023/10/25 08:43:20;;;;;;;6.30;5.70;;;;;;;12.35;98.65;98683.08;108973;277;39306;-69
2023/10/25 08:45:56;;;;;;;6.60;5.40;;;;;;;12.40;98.41;98684.11;108978;277;38298;-68
2023/10/25 08:48:30;;;;;;;6.00;5.30;;;;;;;12.45;98.27;98683.46;108980;277;39014;-72
2023/10/25 08:51:07;;;;;;;6.40;5.80;;;;;;;12.50;98.30;98684.45;108954;277;39022;-69
2023/10/25 08:53:46;;;;;;;7.60;5.90;;;;;;;12.53;98.00;98682.99;108940;277;38707;-66
2023/10/25 08:56:30;;;;;;;8.90;6.30;;;;;;;12.58;98.23;98681.44;108947;277;39363;-66
2023/10/25 08:59:14;;;;;;;6.30;5.70;;;;;;;12.63;97.94;98682.14;108978;277;39485;-66
2023/10/25 09:01:55;;;;;;;6.80;6.10;;;;;;;12.61;97.03;98681.17;108961;277;38229;-66
2023/10/25 09:04:33;;;;;;;7.20;6.50;;;;;;;12.57;96.98;98683.38;108935;277;39432;-69
2023/10/25 09:07:31;;;;;;;6.90;6.20;;;;;;;12.57;96.88;98684.26;108961;277;38198;-69
2023/10/25 09:10:13;;;;;;;8.00;7.00;;;;;;;12.56;97.19;98681.90;108998;277;38176;-69
2023/10/25 09:12:54;;;;;;;7.90;6.50;;;;;;;12.56;96.68;98685.09;108953;277;38277;-70
2023/10/25 09:15:35;;;;;;;7.80;7.00;;;;;;;12.51;96.39;98684.60;108990;277;38401;-70
2023/10/25 09:18:10;;;;;;;7.10;6.50;;;;;;;12.52;96.77;98685.56;108963;277;39150;-69
2023/10/25 09:20:50;;;;;;;6.00;5.50;;;;;;;12.52;96.73;98681.52;108979;277;40093;-69
2023/10/25 09:23:25;;;;;;;5.20;4.60;;;;;;;12.46;96.43;98681.42;109008;277;39350;-70
2023/10/25 09:26:04;;;;;;;5.80;4.20;;;;;;;12.41;96.39;98683.34;108982;277;38216;-68
2023/10/25 09:28:37;;;;;;;;;;;;;;;12.40;96.50;98682.01;109025;277;38300;-68
2023/10/25 09:31:26;;;;;;;5.40;4.40;;;;;;;12.36;96.73;98678.48;109027;277;38382;-69
2023/10/25 09:34:08;;;;;;;4.60;4.20;;;;;;;12.36;96.86;98677.59;108960;277;38137;-67
2023/10/25 09:36:43;;;;;;;4.30;3.90;;;;;;;12.37;96.91;98674.92;108952;277;38457;-66
2023/10/25 09:39:29;;;;;;;4.20;3.70;;;;;;;12.37;97.05;98670.35;108965;277;38347;-67
2023/10/25 09:42:05;;;;;;;4.60;4.20;;;;;;;12.36;96.67;98671.80;108932;277;38183;-66
2023/10/25 09:44:47;;;;;;;5.20;4.70;;;;;;;12.38;96.69;98669.42;108983;277;38860;-67
2023/10/25 09:47:23;;;;;;;4.60;4.20;;;;;;;12.36;96.86;98666.91;108926;277;39401;-70
2023/10/25 09:50:11;;;;;;;4.00;3.60;;;;;;;12.38;97.11;98666.05;108999;277;39180;-69
2023/10/25 09:52:51;;;;;;;5.20;4.10;;;;;;;12.40;97.24;98666.44;108281;277;896073;-66
2023/10/25 09:55:33;;;;;;;3.70;3.40;;;;;;;12.45;97.64;98667.83;108981;277;39446;-66
2023/10/25 09:58:14;;;;;;;6.40;5.10;;;;;;;12.55;97.64;98668.13;108879;277;177679;-66
2023/10/25 10:00:54;;;;;;;3.90;3.60;;;;;;;12.56;97.24;98670.39;108929;277;38601;-66
2023/10/25 10:03:38;;;;;;;4.30;3.90;;;;;;;12.57;97.47;98671.02;108954;277;38405;-69
2023/10/25 10:06:20;;;;;;;4.40;3.80;;;;;;;12.57;96.88;98670.31;108949;277;37984;-69
2023/10/25 10:09:08;;;;;;;3.20;3.00;;;;;;;12.52;96.48;98669.29;108984;277;39360;-71
2023/10/25 10:11:46;;;;;;;4.00;3.60;;;;;;;12.49;96.47;98668.97;108946;277;38326;-71
2023/10/25 10:14:37;;;;;;;3.50;3.20;;;;;;;12.48;96.59;98662.41;108971;277;38333;-67
2023/10/25 10:17:17;;;;;;;3.50;3.20;;;;;;;12.50;97.01;98662.26;108959;277;39388;-68
2023/10/25 10:19:53;;;;;;;2.80;2.60;;;;;;;12.51;96.90;98668.16;108986;277;38320;-68
2023/10/25 10:22:31;;;;;;;3.20;2.50;;;;;;;12.52;97.06;98669.09;109003;277;39693;-69
2023/10/25 10:25:13;;;;;;;5.70;2.30;;;;;;;12.53;96.71;98670.77;108966;277;39853;-69
2023/10/25 10:28:14;;;;;;;2.90;2.60;;;;;;;12.49;96.61;98667.57;108964;277;40075;-67
2023/10/25 10:30:57;;;;;;;2.70;2.40;;;;;;;12.48;97.15;98662.93;108988;277;38613;-66
2023/10/25 10:33:38;;;;;;;3.40;2.10;;;;;;;12.50;97.29;98661.20;108949;277;38452;-69
2023/10/25 10:36:14;;;;;;;3.30;2.10;;;;;;;12.52;97.24;98662.45;108938;277;38156;-69
2023/10/25 10:39:24;;;;;;;2.20;2.00;;;;;;;12.55;97.30;98662.59;108987;277;38257;-70
2023/10/25 10:42:01;;;;;;;2.30;1.80;;;;;;;12.56;97.38;98660.55;108946;277;38609;-69
2023/10/25 10:44:45;;;;;;;;;;;;;;;12.55;97.22;98664.33;108982;277;38196;-66
2023/10/25 10:47:23;;;;;;;3.60;2.10;;;;;;;12.51;97.56;98664.07;108951;277;39418;-67
2023/10/25 10:50:12;;;;;;;1.90;1.60;;;;;;;12.52;97.39;98662.48;108163;277;1013911;-66
2023/10/25 10:52:49;;;;;;;2.20;2.00;;;;;;;12.52;97.40;98665.29;108993;277;38809;-71
2023/10/25 10:55:25;;;;;;;2.60;2.20;;;;;;;12.51;97.34;98665.00;108958;277;38818;-69
2023/10/25 10:57:59;;;;;;;2.80;2.00;;;;;;;12.49;97.36;98665.80;109006;277;38255;-70
2023/10/25 11:00:37;;;;;;;2.70;2.00;;;;;;;12.48;97.32;98667.81;108938;277;39621;-70
2023/10/25 11:03:16;;;;;;;2.60;1.80;;;;;;;12.45;97.11;98666.61;109021;277;39988;-66
2023/10/25 11:05:56;;;;;;;;;;;;;;;12.45;97.25;98668.39;108967;277;38735;-66
2023/10/25 11:08:38;;;;;;;2.50;2.30;;;;;;;12.39;97.38;98664.75;108939;277;40518;-68
2023/10/25 11:11:14;;;;;;;3.50;2.70;;;;;;;12.40;97.87;98666.80;108955;277;38691;-69
2023/10/25 11:13:54;;;;;;;5.40;2.50;;;;;;;12.41;97.68;98663.98;108961;277;39595;-69
2023/10/25 11:16:28;;;;;;;3.20;2.50;;;;;;;12.39;97.56;98663.86;108938;277;39105;-69
2023/10/25 11:19:17;;;;;;;3.90;2.90;;;;;;;12.41;97.84;98662.03;108972;277;40160;-69
2023/10/25 11:21:55;;;;;;;2.80;2.60;;;;;;;12.42;97.79;98665.09;108930;271;40806;-69
2023/10/25 11:24:33;;;;;;;2.80;2.60;;;;;;;12.43;98.16;98665.76;108989;277;39322;-66
2023/10/25 11:27:16;;;;;;;3.00;2.10;;;;;;;12.44;97.95;98666.39;108987;277;38448;-65
2023/10/25 11:29:53;;;;;;;2.50;2.30;;;;;;;12.48;98.27;98673.44;108946;277;38424;-69
2023/10/25 11:32:33;;;;;;;2.30;2.10;;;;;;;12.49;97.91;98673.69;108994;277;38718;-67
2023/10/25 11:35:22;;;;;;;2.70;2.00;;;;;;;12.50;98.03;98678.00;108265;277;895582;-66
2023/10/25 11:37:59;;;;;;;1.70;1.60;;;;;;;12.53;98.49;98684.10;108952;277;39631;-69
2023/10/25 11:40:48;;;;;;;2.10;1.90;;;;;;;12.57;98.49;98691.11;108919;277;38622;-69
2023/10/25 11:43:24;;;;;;;2.60;1.70;;;;;;;12.63;98.49;98693.27;108953;277;39979;-69
2023/10/25 11:45:58;;;;;;;2.00;1.80;;;;;;;12.66;97.91;98694.84;108917;277;38431;-69
2023/10/25 11:48:32;;;;;;;1.80;1.70;;;;;;;12.71;98.20;98695.21;108964;277;39016;-69
2023/10/25 11:51:09;;;;;;;2.70;2.00;;;;;;;12.71;98.05;98693.05;109038;277;40608;-69
2023/10/25 11:53:46;;;;;;;2.60;1.70;;;;;;;12.71;98.05;98696.21;109038;277;38260;-66
2023/10/25 11:56:23;;;;;;;1.70;1.60;;;;;;;12.74;98.18;98697.23;108316;277;899112;-66
2023/10/25 11:58:58;;;;;;;2.40;1.50;;;;;;;12.79;98.23;98695.10;109000;277;38247;-70
2023/10/25 12:01:35;;;;;;;1.90;1.80;;;;;;;12.83;98.02;98691.78;108999;277;39090;-69
2023/10/25 12:04:11;;;;;;;2.70;1.90;;;;;;;12.84;97.79;98695.23;108984;277;39301;-66
2023/10/25 12:06:48;;;;;;;1.90;1.60;;;;;;;12.82;97.61;98705.39;108871;277;172614;-66
2023/10/25 12:09:23;;;;;;;1.90;1.50;;;;;;;12.81;97.74;98706.80;109007;277;39266;-70
2023/10/25 12:12:00;;;;;;;1.60;1.30;;;;;;;12.83;97.51;98713.11;108952;277;39302;-71
2023/10/25 12:14:35;;;;;;;3.60;1.40;;;;;;;12.83;97.24;98714.89;108974;277;38268;-69
2023/10/25 12:17:15;;;;;;;1.60;1.50;;;;;;;12.84;97.17;98714.45;108935;277;39366;-69
2023/10/25 12:19:51;;;;;;;1.90;1.40;;;;;;;12.84;97.09;98720.84;108953;277;38369;-70
2023/10/25 12:22:30;;;;;;;1.70;1.60;;;;;;;12.80;96.75;98720.07;108986;277;38287;-66